sensor_id;sensor_type;location;lat;lon;timestamp;temperature;humidity
13405;DHT22;6773;51.192;7.024;2022-12-19T00:01:48;0.40;99.90
13405;DHT22;6773;51.192;7.024;2022-12-19T00:06:44;0.40;99.90
13405;DHT22;6773;51.192;7.024;2022-12-19T00:09:10;0.30;99.90
13405;DHT22;6773;51.192;7.024;2022-12-19T00:11:36;0.40;99.90
13405;DHT22;6773;51.192;7.024;2022-12-19T00:14:03;0.50;99.90
13405;DHT22;6773;51.192;7.024;2022-12-19T00:16:29;0.40;99.90
13405;DHT22;6773;51.192;7.024;2022-12-19T00:18:57;0.40;99.90
13405;DHT22;6773;51.192;7.024;2022-12-19T00:21:25;0.50;99.90
13405;DHT22;6773;51.192;7.024;2022-12-19T00:23:51;0.60;99.90
13405;DHT22;6773;51.192;7.024;2022-12-19T00:26:22;0.50;99.90
13405;DHT22;6773;51.192;7.024;2022-12-19T00:28:51;0.60;99.90
13405;DHT22;6773;51.192;7.024;2022-12-19T00:31:18;0.60;99.90
13405;DHT22;6773;51.192;7.024;2022-12-19T00:33:44;0.60;99.90
13405;DHT22;6773;51.192;7.024;2022-12-19T00:36:13;0.60;99.90
13405;DHT22;6773;51.192;7.024;2022-12-19T00:38:39;0.70;99.90
13405;DHT22;6773;51.192;7.024;2022-12-19T00:41:09;0.70;99.90
13405;DHT22;6773;51.192;7.024;2022-12-19T00:43:35;0.70;99.90
13405;DHT22;6773;51.192;7.024;2022-12-19T00:46:03;0.60;99.90
13405;DHT22;6773;51.192;7.024;2022-12-19T00:48:30;0.70;99.90
13405;DHT22;6773;51.192;7.024;2022-12-19T00:51:03;0.70;99.90
13405;DHT22;6773;51.192;7.024;2022-12-19T00:53:29;0.80;99.90
13405;DHT22;6773;51.192;7.024;2022-12-19T00:55:55;0.80;99.90
13405;DHT22;6773;51.192;7.024;2022-12-19T00:58:22;0.70;99.90
13405;DHT22;6773;51.192;7.024;2022-12-19T01:00:48;0.80;99.90
13405;DHT22;6773;51.192;7.024;2022-12-19T01:03:13;0.70;99.90
13405;DHT22;6773;51.192;7.024;2022-12-19T01:05:39;0.90;99.90
13405;DHT22;6773;51.192;7.024;2022-12-19T01:08:04;0.90;99.90
13405;DHT22;6773;51.192;7.024;2022-12-19T01:12:56;0.90;99.90
13405;DHT22;6773;51.192;7.024;2022-12-19T01:15:21;1.00;99.90
13405;DHT22;6773;51.192;7.024;2022-12-19T01:17:48;0.80;99.90
13405;DHT22;6773;51.192;7.024;2022-12-19T01:20:16;0.90;99.90
13405;DHT22;6773;51.192;7.024;2022-12-19T01:22:42;1.00;99.90
13405;DHT22;6773;51.192;7.024;2022-12-19T01:25:08;0.90;99.90
13405;DHT22;6773;51.192;7.024;2022-12-19T01:27:34;1.00;99.90
13405;DHT22;6773;51.192;7.024;2022-12-19T01:30:00;0.90;99.90
13405;DHT22;6773;51.192;7.024;2022-12-19T01:32:25;0.90;99.90
13405;DHT22;6773;51.192;7.024;2022-12-19T01:34:51;1.00;99.90
13405;DHT22;6773;51.192;7.024;2022-12-19T01:37:17;1.10;99.90
13405;DHT22;6773;51.192;7.024;2022-12-19T01:39:43;1.10;99.90
13405;DHT22;6773;51.192;7.024;2022-12-19T01:42:20;1.00;99.90
13405;DHT22;6773;51.192;7.024;2022-12-19T01:50:38;1.00;99.90
13405;DHT22;6773;51.192;7.024;2022-12-19T01:53:07;1.10;99.90
13405;DHT22;6773;51.192;7.024;2022-12-19T01:55:36;1.10;99.90
13405;DHT22;6773;51.192;7.024;2022-12-19T01:58:02;1.10;99.90
13405;DHT22;6773;51.192;7.024;2022-12-19T02:00:28;1.20;99.90
13405;DHT22;6773;51.192;7.024;2022-12-19T02:03:06;1.20;99.90
13405;DHT22;6773;51.192;7.024;2022-12-19T02:05:33;1.10;99.90
13405;DHT22;6773;51.192;7.024;2022-12-19T02:08:00;1.20;99.90
13405;DHT22;6773;51.192;7.024;2022-12-19T02:10:25;1.30;99.90
13405;DHT22;6773;51.192;7.024;2022-12-19T02:12:51;1.40;99.90
13405;DHT22;6773;51.192;7.024;2022-12-19T02:15:17;1.30;99.90
13405;DHT22;6773;51.192;7.024;2022-12-19T02:26:48;1.50;99.90
13405;DHT22;6773;51.192;7.024;2022-12-19T02:32:02;1.60;99.90
13405;DHT22;6773;51.192;7.024;2022-12-19T02:37:10;1.60;99.90
13405;DHT22;6773;51.192;7.024;2022-12-19T02:42:32;1.70;99.90
13405;DHT22;6773;51.192;7.024;2022-12-19T02:45:00;1.80;99.90
13405;DHT22;6773;51.192;7.024;2022-12-19T02:47:28;1.80;99.90
13405;DHT22;6773;51.192;7.024;2022-12-19T02:49:55;1.80;99.90
13405;DHT22;6773;51.192;7.024;2022-12-19T02:54:49;1.90;99.90
13405;DHT22;6773;51.192;7.024;2022-12-19T02:57:18;1.90;99.90
13405;DHT22;6773;51.192;7.024;2022-12-19T03:10:58;2.00;99.90
13405;DHT22;6773;51.192;7.024;2022-12-19T03:16:01;2.10;99.90
13405;DHT22;6773;51.192;7.024;2022-12-19T03:18:28;2.20;99.90
13405;DHT22;6773;51.192;7.024;2022-12-19T03:21:08;2.20;99.90
13405;DHT22;6773;51.192;7.024;2022-12-19T03:23:36;2.20;99.90
13405;DHT22;6773;51.192;7.024;2022-12-19T03:26:12;2.20;99.90
13405;DHT22;6773;51.192;7.024;2022-12-19T03:28:55;2.30;99.90
13405;DHT22;6773;51.192;7.024;2022-12-19T03:31:27;2.30;99.90
13405;DHT22;6773;51.192;7.024;2022-12-19T03:33:59;2.10;99.90
13405;DHT22;6773;51.192;7.024;2022-12-19T03:36:31;2.20;99.90
13405;DHT22;6773;51.192;7.024;2022-12-19T03:38:59;2.20;99.90
13405;DHT22;6773;51.192;7.024;2022-12-19T03:44:12;2.20;99.90
13405;DHT22;6773;51.192;7.024;2022-12-19T03:46:42;2.20;99.90
13405;DHT22;6773;51.192;7.024;2022-12-19T03:49:10;2.20;99.90
13405;DHT22;6773;51.192;7.024;2022-12-19T03:51:47;2.20;99.90
13405;DHT22;6773;51.192;7.024;2022-12-19T03:54:39;2.10;99.90
13405;DHT22;6773;51.192;7.024;2022-12-19T03:57:18;2.20;99.90
13405;DHT22;6773;51.192;7.024;2022-12-19T03:59:47;2.10;99.90
13405;DHT22;6773;51.192;7.024;2022-12-19T04:02:15;2.20;99.90
13405;DHT22;6773;51.192;7.024;2022-12-19T04:04:44;2.30;99.90
13405;DHT22;6773;51.192;7.024;2022-12-19T04:07:12;2.20;99.90
13405;DHT22;6773;51.192;7.024;2022-12-19T04:09:40;2.30;99.90
13405;DHT22;6773;51.192;7.024;2022-12-19T04:12:16;2.30;99.90
13405;DHT22;6773;51.192;7.024;2022-12-19T04:14:43;2.30;99.90
13405;DHT22;6773;51.192;7.024;2022-12-19T04:18:01;2.40;99.90
13405;DHT22;6773;51.192;7.024;2022-12-19T04:20:21;2.30;99.90
13405;DHT22;6773;51.192;7.024;2022-12-19T04:25:25;2.40;99.90
13405;DHT22;6773;51.192;7.024;2022-12-19T04:28:15;2.40;99.90
13405;DHT22;6773;51.192;7.024;2022-12-19T04:30:43;2.40;99.90
13405;DHT22;6773;51.192;7.024;2022-12-19T04:33:09;2.50;99.90
13405;DHT22;6773;51.192;7.024;2022-12-19T04:35:35;2.60;99.90
13405;DHT22;6773;51.192;7.024;2022-12-19T04:38:01;2.50;99.90
13405;DHT22;6773;51.192;7.024;2022-12-19T04:40:27;2.60;99.90
13405;DHT22;6773;51.192;7.024;2022-12-19T04:42:52;2.50;99.90
13405;DHT22;6773;51.192;7.024;2022-12-19T04:45:18;2.50;99.90
13405;DHT22;6773;51.192;7.024;2022-12-19T04:47:44;2.60;99.90
13405;DHT22;6773;51.192;7.024;2022-12-19T04:50:09;2.60;99.90
13405;DHT22;6773;51.192;7.024;2022-12-19T04:52:35;2.60;99.90
13405;DHT22;6773;51.192;7.024;2022-12-19T04:55:00;2.60;99.90
13405;DHT22;6773;51.192;7.024;2022-12-19T04:57:30;2.60;99.90
13405;DHT22;6773;51.192;7.024;2022-12-19T04:59:55;2.50;99.90
13405;DHT22;6773;51.192;7.024;2022-12-19T05:02:21;2.60;99.90
13405;DHT22;6773;51.192;7.024;2022-12-19T05:04:47;2.60;99.90
13405;DHT22;6773;51.192;7.024;2022-12-19T05:07:13;2.80;99.90
13405;DHT22;6773;51.192;7.024;2022-12-19T05:09:39;2.80;99.90
13405;DHT22;6773;51.192;7.024;2022-12-19T05:12:05;2.80;99.90
13405;DHT22;6773;51.192;7.024;2022-12-19T05:14:31;2.70;99.90
13405;DHT22;6773;51.192;7.024;2022-12-19T05:21:49;2.90;99.90
13405;DHT22;6773;51.192;7.024;2022-12-19T05:24:14;2.80;99.90
13405;DHT22;6773;51.192;7.024;2022-12-19T05:26:40;2.70;99.90
13405;DHT22;6773;51.192;7.024;2022-12-19T05:29:06;2.70;99.90
13405;DHT22;6773;51.192;7.024;2022-12-19T05:33:59;2.80;99.90
13405;DHT22;6773;51.192;7.024;2022-12-19T05:36:24;2.70;99.90
13405;DHT22;6773;51.192;7.024;2022-12-19T05:38:58;2.80;99.90
13405;DHT22;6773;51.192;7.024;2022-12-19T05:41:24;2.80;99.90
13405;DHT22;6773;51.192;7.024;2022-12-19T05:43:51;2.80;99.90
13405;DHT22;6773;51.192;7.024;2022-12-19T05:46:18;2.70;99.90
13405;DHT22;6773;51.192;7.024;2022-12-19T05:48:43;2.80;99.90
13405;DHT22;6773;51.192;7.024;2022-12-19T05:51:09;2.80;99.90
13405;DHT22;6773;51.192;7.024;2022-12-19T05:53:35;2.80;99.90
13405;DHT22;6773;51.192;7.024;2022-12-19T05:56:07;2.90;99.90
13405;DHT22;6773;51.192;7.024;2022-12-19T05:58:33;2.90;99.90
13405;DHT22;6773;51.192;7.024;2022-12-19T06:01:04;2.90;99.90
13405;DHT22;6773;51.192;7.024;2022-12-19T06:05:55;2.90;99.90
13405;DHT22;6773;51.192;7.024;2022-12-19T06:10:47;2.90;99.90
13405;DHT22;6773;51.192;7.024;2022-12-19T06:13:13;3.00;99.90
13405;DHT22;6773;51.192;7.024;2022-12-19T06:18:04;3.00;99.90
13405;DHT22;6773;51.192;7.024;2022-12-19T06:22:56;2.90;99.90
13405;DHT22;6773;51.192;7.024;2022-12-19T06:25:21;3.00;99.90
13405;DHT22;6773;51.192;7.024;2022-12-19T06:27:47;3.00;99.90
13405;DHT22;6773;51.192;7.024;2022-12-19T06:30:13;3.00;99.90
13405;DHT22;6773;51.192;7.024;2022-12-19T06:32:39;3.10;99.90
13405;DHT22;6773;51.192;7.024;2022-12-19T06:35:06;3.10;99.90
13405;DHT22;6773;51.192;7.024;2022-12-19T06:39:57;3.20;99.90
13405;DHT22;6773;51.192;7.024;2022-12-19T06:42:23;3.30;99.90
13405;DHT22;6773;51.192;7.024;2022-12-19T06:44:50;3.30;99.90
13405;DHT22;6773;51.192;7.024;2022-12-19T06:47:16;3.40;99.90
13405;DHT22;6773;51.192;7.024;2022-12-19T06:52:08;3.50;99.90
13405;DHT22;6773;51.192;7.024;2022-12-19T06:54:34;3.60;99.90
13405;DHT22;6773;51.192;7.024;2022-12-19T06:56:59;3.70;99.90
13405;DHT22;6773;51.192;7.024;2022-12-19T06:59:25;3.70;99.90
13405;DHT22;6773;51.192;7.024;2022-12-19T07:04:39;3.90;99.90
13405;DHT22;6773;51.192;7.024;2022-12-19T07:07:06;4.10;99.90
13405;DHT22;6773;51.192;7.024;2022-12-19T07:09:33;4.10;99.90
13405;DHT22;6773;51.192;7.024;2022-12-19T07:11:59;4.00;99.90
13405;DHT22;6773;51.192;7.024;2022-12-19T07:14:25;4.10;99.90
13405;DHT22;6773;51.192;7.024;2022-12-19T07:16:52;4.10;99.90
13405;DHT22;6773;51.192;7.024;2022-12-19T07:19:19;4.20;99.90
13405;DHT22;6773;51.192;7.024;2022-12-19T07:21:45;4.20;99.90
13405;DHT22;6773;51.192;7.024;2022-12-19T07:24:12;4.20;99.90
13405;DHT22;6773;51.192;7.024;2022-12-19T07:26:40;4.20;99.90
13405;DHT22;6773;51.192;7.024;2022-12-19T07:29:06;4.20;99.90
13405;DHT22;6773;51.192;7.024;2022-12-19T07:31:32;4.20;99.90
13405;DHT22;6773;51.192;7.024;2022-12-19T07:33:57;4.30;99.90
13405;DHT22;6773;51.192;7.024;2022-12-19T07:38:49;4.30;99.90
13405;DHT22;6773;51.192;7.024;2022-12-19T07:41:15;4.20;99.90
13405;DHT22;6773;51.192;7.024;2022-12-19T07:43:41;4.30;99.90
13405;DHT22;6773;51.192;7.024;2022-12-19T07:46:06;4.20;99.90
13405;DHT22;6773;51.192;7.024;2022-12-19T07:50:58;4.30;99.90
13405;DHT22;6773;51.192;7.024;2022-12-19T07:53:23;4.30;99.90
13405;DHT22;6773;51.192;7.024;2022-12-19T07:58:16;4.30;99.90
13405;DHT22;6773;51.192;7.024;2022-12-19T08:00:41;4.20;99.90
13405;DHT22;6773;51.192;7.024;2022-12-19T08:03:07;4.20;99.90
13405;DHT22;6773;51.192;7.024;2022-12-19T08:05:33;4.20;99.90
13405;DHT22;6773;51.192;7.024;2022-12-19T08:12:51;4.40;99.90
13405;DHT22;6773;51.192;7.024;2022-12-19T08:15:17;4.40;99.90
13405;DHT22;6773;51.192;7.024;2022-12-19T08:17:42;4.40;99.90
13405;DHT22;6773;51.192;7.024;2022-12-19T08:20:09;4.40;99.90
13405;DHT22;6773;51.192;7.024;2022-12-19T08:22:38;4.40;99.90
13405;DHT22;6773;51.192;7.024;2022-12-19T08:29:58;4.50;99.90
13405;DHT22;6773;51.192;7.024;2022-12-19T08:32:24;4.50;99.90
13405;DHT22;6773;51.192;7.024;2022-12-19T08:34:50;4.50;99.90
13405;DHT22;6773;51.192;7.024;2022-12-19T08:37:16;4.50;99.90
13405;DHT22;6773;51.192;7.024;2022-12-19T08:42:07;4.60;99.90
13405;DHT22;6773;51.192;7.024;2022-12-19T08:44:33;4.70;99.90
13405;DHT22;6773;51.192;7.024;2022-12-19T08:46:58;4.70;99.90
13405;DHT22;6773;51.192;7.024;2022-12-19T08:49:24;4.70;99.90
13405;DHT22;6773;51.192;7.024;2022-12-19T08:54:16;4.70;99.90
13405;DHT22;6773;51.192;7.024;2022-12-19T08:56:41;4.70;99.90
13405;DHT22;6773;51.192;7.024;2022-12-19T09:01:33;4.70;99.90
13405;DHT22;6773;51.192;7.024;2022-12-19T09:03:59;4.80;99.90
13405;DHT22;6773;51.192;7.024;2022-12-19T09:06:25;4.80;99.90
13405;DHT22;6773;51.192;7.024;2022-12-19T09:08:50;4.80;99.90
13405;DHT22;6773;51.192;7.024;2022-12-19T09:11:18;4.90;99.90
13405;DHT22;6773;51.192;7.024;2022-12-19T09:13:45;5.00;99.90
13405;DHT22;6773;51.192;7.024;2022-12-19T09:16:19;5.10;99.90
13405;DHT22;6773;51.192;7.024;2022-12-19T09:18:46;5.10;99.90
13405;DHT22;6773;51.192;7.024;2022-12-19T09:21:13;5.20;99.90
13405;DHT22;6773;51.192;7.024;2022-12-19T09:23:39;5.30;99.90
13405;DHT22;6773;51.192;7.024;2022-12-19T09:26:08;5.40;99.90
13405;DHT22;6773;51.192;7.024;2022-12-19T09:28:36;5.40;99.90
13405;DHT22;6773;51.192;7.024;2022-12-19T09:31:10;5.50;99.90
13405;DHT22;6773;51.192;7.024;2022-12-19T09:33:36;5.50;99.90
13405;DHT22;6773;51.192;7.024;2022-12-19T09:36:03;5.50;99.90
13405;DHT22;6773;51.192;7.024;2022-12-19T09:38:30;5.60;99.90
13405;DHT22;6773;51.192;7.024;2022-12-19T09:46:36;5.70;99.90
13405;DHT22;6773;51.192;7.024;2022-12-19T09:49:12;5.60;99.90
13405;DHT22;6773;51.192;7.024;2022-12-19T09:52:09;5.60;99.90
13405;DHT22;6773;51.192;7.024;2022-12-19T09:54:40;5.60;99.90
13405;DHT22;6773;51.192;7.024;2022-12-19T09:57:15;5.70;99.90
13405;DHT22;6773;51.192;7.024;2022-12-19T10:00:13;5.60;99.90
13405;DHT22;6773;51.192;7.024;2022-12-19T10:02:56;5.70;99.90
13405;DHT22;6773;51.192;7.024;2022-12-19T10:05:51;5.80;99.90
13405;DHT22;6773;51.192;7.024;2022-12-19T10:18:50;5.80;99.90
13405;DHT22;6773;51.192;7.024;2022-12-19T10:21:37;5.80;99.90
13405;DHT22;6773;51.192;7.024;2022-12-19T10:26:50;5.70;99.90
13405;DHT22;6773;51.192;7.024;2022-12-19T10:32:06;5.70;99.90
13405;DHT22;6773;51.192;7.024;2022-12-19T10:34:40;5.70;99.90
13405;DHT22;6773;51.192;7.024;2022-12-19T10:37:35;5.70;99.90
13405;DHT22;6773;51.192;7.024;2022-12-19T10:42:50;5.80;99.90
13405;DHT22;6773;51.192;7.024;2022-12-19T10:45:19;5.80;99.90
13405;DHT22;6773;51.192;7.024;2022-12-19T10:47:53;5.70;99.90
13405;DHT22;6773;51.192;7.024;2022-12-19T10:50:22;5.70;99.90
13405;DHT22;6773;51.192;7.024;2022-12-19T10:53:06;5.70;99.90
13405;DHT22;6773;51.192;7.024;2022-12-19T10:55:49;5.70;99.90
13405;DHT22;6773;51.192;7.024;2022-12-19T11:03:18;5.60;99.90
13405;DHT22;6773;51.192;7.024;2022-12-19T11:05:53;5.70;99.90
13405;DHT22;6773;51.192;7.024;2022-12-19T11:10:58;5.80;99.90
13405;DHT22;6773;51.192;7.024;2022-12-19T11:16:01;5.90;99.90
13405;DHT22;6773;51.192;7.024;2022-12-19T11:18:46;5.80;99.90
13405;DHT22;6773;51.192;7.024;2022-12-19T11:26:34;5.90;99.90
13405;DHT22;6773;51.192;7.024;2022-12-19T11:29:04;5.90;99.90
13405;DHT22;6773;51.192;7.024;2022-12-19T11:31:41;5.90;99.90
13405;DHT22;6773;51.192;7.024;2022-12-19T11:34:14;6.00;99.90
13405;DHT22;6773;51.192;7.024;2022-12-19T11:36:54;6.00;99.90
13405;DHT22;6773;51.192;7.024;2022-12-19T11:42:06;5.90;99.90
13405;DHT22;6773;51.192;7.024;2022-12-19T11:44:47;5.90;99.90
13405;DHT22;6773;51.192;7.024;2022-12-19T11:49:58;6.00;99.90
13405;DHT22;6773;51.192;7.024;2022-12-19T11:55:29;6.00;99.90
13405;DHT22;6773;51.192;7.024;2022-12-19T11:57:57;6.00;99.90
13405;DHT22;6773;51.192;7.024;2022-12-19T12:00:23;6.10;99.90
13405;DHT22;6773;51.192;7.024;2022-12-19T12:03:24;6.00;99.90
13405;DHT22;6773;51.192;7.024;2022-12-19T12:08:43;6.10;99.90
13405;DHT22;6773;51.192;7.024;2022-12-19T12:11:24;6.00;99.90
13405;DHT22;6773;51.192;7.024;2022-12-19T12:14:05;6.10;99.90
13405;DHT22;6773;51.192;7.024;2022-12-19T12:28:22;6.40;99.90
13405;DHT22;6773;51.192;7.024;2022-12-19T12:34:13;6.50;99.90
13405;DHT22;6773;51.192;7.024;2022-12-19T12:36:59;6.60;99.90
13405;DHT22;6773;51.192;7.024;2022-12-19T12:42:28;6.70;99.90
13405;DHT22;6773;51.192;7.024;2022-12-19T12:45:02;6.70;99.90
13405;DHT22;6773;51.192;7.024;2022-12-19T12:47:33;6.80;99.90
13405;DHT22;6773;51.192;7.024;2022-12-19T12:50:03;6.70;99.90
13405;DHT22;6773;51.192;7.024;2022-12-19T12:52:37;6.80;99.90
13405;DHT22;6773;51.192;7.024;2022-12-19T12:55:11;6.80;99.90
13405;DHT22;6773;51.192;7.024;2022-12-19T12:57:38;6.80;99.90
13405;DHT22;6773;51.192;7.024;2022-12-19T13:00:24;6.70;99.90
13405;DHT22;6773;51.192;7.024;2022-12-19T13:10:55;6.70;99.90
13405;DHT22;6773;51.192;7.024;2022-12-19T13:37:49;6.80;99.90
13405;DHT22;6773;51.192;7.024;2022-12-19T13:40:26;6.80;99.90
13405;DHT22;6773;51.192;7.024;2022-12-19T13:45:52;6.70;99.90
13405;DHT22;6773;51.192;7.024;2022-12-19T13:50:50;6.70;99.90
13405;DHT22;6773;51.192;7.024;2022-12-19T13:53:27;6.70;99.90
13405;DHT22;6773;51.192;7.024;2022-12-19T13:56:04;6.70;99.90
13405;DHT22;6773;51.192;7.024;2022-12-19T13:58:54;6.60;99.90
13405;DHT22;6773;51.192;7.024;2022-12-19T14:03:53;6.70;99.90
13405;DHT22;6773;51.192;7.024;2022-12-19T14:06:22;6.70;99.90
13405;DHT22;6773;51.192;7.024;2022-12-19T14:08:50;6.60;99.90
13405;DHT22;6773;51.192;7.024;2022-12-19T14:11:17;6.60;99.90
13405;DHT22;6773;51.192;7.024;2022-12-19T14:13:55;6.70;99.90
13405;DHT22;6773;51.192;7.024;2022-12-19T14:16:39;6.70;99.90
13405;DHT22;6773;51.192;7.024;2022-12-19T14:19:24;6.80;99.90
13405;DHT22;6773;51.192;7.024;2022-12-19T14:21:50;6.80;99.90
13405;DHT22;6773;51.192;7.024;2022-12-19T14:24:18;6.80;99.90
13405;DHT22;6773;51.192;7.024;2022-12-19T14:26:55;6.90;99.90
13405;DHT22;6773;51.192;7.024;2022-12-19T14:29:28;6.90;99.90
13405;DHT22;6773;51.192;7.024;2022-12-19T14:31:55;7.00;99.90
13405;DHT22;6773;51.192;7.024;2022-12-19T14:34:23;7.00;99.90
13405;DHT22;6773;51.192;7.024;2022-12-19T14:36:55;7.00;99.90
13405;DHT22;6773;51.192;7.024;2022-12-19T14:39:27;7.10;99.90
13405;DHT22;6773;51.192;7.024;2022-12-19T14:42:04;7.00;99.90
13405;DHT22;6773;51.192;7.024;2022-12-19T14:44:50;7.00;99.90
13405;DHT22;6773;51.192;7.024;2022-12-19T14:47:24;7.00;99.90
13405;DHT22;6773;51.192;7.024;2022-12-19T14:49:51;7.00;99.90
13405;DHT22;6773;51.192;7.024;2022-12-19T14:57:47;7.00;99.90
13405;DHT22;6773;51.192;7.024;2022-12-19T15:00:27;7.00;99.90
13405;DHT22;6773;51.192;7.024;2022-12-19T15:02:55;7.00;99.90
13405;DHT22;6773;51.192;7.024;2022-12-19T15:05:22;7.00;99.90
13405;DHT22;6773;51.192;7.024;2022-12-19T15:07:54;7.00;99.90
13405;DHT22;6773;51.192;7.024;2022-12-19T15:10:41;6.90;99.90
13405;DHT22;6773;51.192;7.024;2022-12-19T15:18:39;6.90;99.90
13405;DHT22;6773;51.192;7.024;2022-12-19T15:21:09;6.90;99.90
13405;DHT22;6773;51.192;7.024;2022-12-19T15:26:06;7.00;99.90
13405;DHT22;6773;51.192;7.024;2022-12-19T15:28:45;6.90;99.90
13405;DHT22;6773;51.192;7.024;2022-12-19T15:38:40;7.00;99.90
13405;DHT22;6773;51.192;7.024;2022-12-19T15:41:14;6.80;99.90
13405;DHT22;6773;51.192;7.024;2022-12-19T15:43:40;6.90;99.90
13405;DHT22;6773;51.192;7.024;2022-12-19T15:46:08;7.00;99.90
13405;DHT22;6773;51.192;7.024;2022-12-19T15:48:36;7.00;99.90
13405;DHT22;6773;51.192;7.024;2022-12-19T15:51:03;7.00;99.90
13405;DHT22;6773;51.192;7.024;2022-12-19T15:55:57;7.00;99.90
13405;DHT22;6773;51.192;7.024;2022-12-19T15:58:25;7.10;99.90
13405;DHT22;6773;51.192;7.024;2022-12-19T16:01:09;7.10;99.90
13405;DHT22;6773;51.192;7.024;2022-12-19T16:03:37;7.00;99.90
13405;DHT22;6773;51.192;7.024;2022-12-19T16:06:04;7.10;99.90
13405;DHT22;6773;51.192;7.024;2022-12-19T16:08:30;7.10;99.90
13405;DHT22;6773;51.192;7.024;2022-12-19T16:10:56;7.10;99.90
13405;DHT22;6773;51.192;7.024;2022-12-19T16:13:28;7.10;99.90
13405;DHT22;6773;51.192;7.024;2022-12-19T16:15:56;7.20;99.90
13405;DHT22;6773;51.192;7.024;2022-12-19T16:20:48;7.20;99.90
13405;DHT22;6773;51.192;7.024;2022-12-19T16:23:14;7.20;99.90
13405;DHT22;6773;51.192;7.024;2022-12-19T16:28:12;7.30;99.90
13405;DHT22;6773;51.192;7.024;2022-12-19T16:30:39;7.30;99.90
13405;DHT22;6773;51.192;7.024;2022-12-19T16:33:25;7.30;99.90
13405;DHT22;6773;51.192;7.024;2022-12-19T16:35:52;7.20;99.90
13405;DHT22;6773;51.192;7.024;2022-12-19T16:38:18;7.30;99.90
13405;DHT22;6773;51.192;7.024;2022-12-19T16:40:50;7.30;99.90
13405;DHT22;6773;51.192;7.024;2022-12-19T16:43:32;7.40;99.90
13405;DHT22;6773;51.192;7.024;2022-12-19T16:45:59;7.40;99.90
13405;DHT22;6773;51.192;7.024;2022-12-19T16:48:26;7.40;99.90
13405;DHT22;6773;51.192;7.024;2022-12-19T16:50:58;7.40;99.90
13405;DHT22;6773;51.192;7.024;2022-12-19T16:53:24;7.50;99.90
13405;DHT22;6773;51.192;7.024;2022-12-19T16:55:50;7.50;99.90
13405;DHT22;6773;51.192;7.024;2022-12-19T16:58:20;7.40;99.90
13405;DHT22;6773;51.192;7.024;2022-12-19T17:03:36;7.40;99.90
13405;DHT22;6773;51.192;7.024;2022-12-19T17:06:05;7.50;99.90
13405;DHT22;6773;51.192;7.024;2022-12-19T17:10:57;7.50;99.90
13405;DHT22;6773;51.192;7.024;2022-12-19T17:13:23;7.60;99.90
13405;DHT22;6773;51.192;7.024;2022-12-19T17:15:49;7.60;99.90
13405;DHT22;6773;51.192;7.024;2022-12-19T17:18:26;7.70;99.90
13405;DHT22;6773;51.192;7.024;2022-12-19T17:23:23;7.80;99.90
13405;DHT22;6773;51.192;7.024;2022-12-19T17:25:49;7.90;99.90
13405;DHT22;6773;51.192;7.024;2022-12-19T17:28:16;7.90;99.90
13405;DHT22;6773;51.192;7.024;2022-12-19T17:30:47;8.00;99.90
13405;DHT22;6773;51.192;7.024;2022-12-19T17:33:14;8.00;99.90
13405;DHT22;6773;51.192;7.024;2022-12-19T17:35:41;8.10;99.90
13405;DHT22;6773;51.192;7.024;2022-12-19T17:38:12;8.10;99.90
13405;DHT22;6773;51.192;7.024;2022-12-19T17:40:39;8.20;99.90
13405;DHT22;6773;51.192;7.024;2022-12-19T17:43:05;8.20;99.90
13405;DHT22;6773;51.192;7.024;2022-12-19T17:45:32;8.20;99.90
13405;DHT22;6773;51.192;7.024;2022-12-19T17:48:06;8.30;99.90
13405;DHT22;6773;51.192;7.024;2022-12-19T17:50:40;8.40;99.90
13405;DHT22;6773;51.192;7.024;2022-12-19T17:53:11;8.40;99.90
13405;DHT22;6773;51.192;7.024;2022-12-19T17:55:37;8.50;99.90
13405;DHT22;6773;51.192;7.024;2022-12-19T17:58:03;8.50;99.90
13405;DHT22;6773;51.192;7.024;2022-12-19T18:00:30;8.60;99.90
13405;DHT22;6773;51.192;7.024;2022-12-19T18:02:59;8.60;99.90
13405;DHT22;6773;51.192;7.024;2022-12-19T18:05:35;8.60;99.90
13405;DHT22;6773;51.192;7.024;2022-12-19T18:08:02;8.60;99.90
13405;DHT22;6773;51.192;7.024;2022-12-19T18:10:30;8.50;99.90
13405;DHT22;6773;51.192;7.024;2022-12-19T18:15:23;8.50;99.90
13405;DHT22;6773;51.192;7.024;2022-12-19T18:17:50;8.60;99.90
13405;DHT22;6773;51.192;7.024;2022-12-19T18:20:24;8.70;99.90
13405;DHT22;6773;51.192;7.024;2022-12-19T18:22:51;8.60;99.90
13405;DHT22;6773;51.192;7.024;2022-12-19T18:25:19;8.70;99.90
13405;DHT22;6773;51.192;7.024;2022-12-19T18:30:12;8.90;99.90
13405;DHT22;6773;51.192;7.024;2022-12-19T18:32:54;8.90;99.90
13405;DHT22;6773;51.192;7.024;2022-12-19T18:35:22;9.00;99.90
13405;DHT22;6773;51.192;7.024;2022-12-19T18:37:49;8.90;99.90
13405;DHT22;6773;51.192;7.024;2022-12-19T18:40:19;8.80;99.90
13405;DHT22;6773;51.192;7.024;2022-12-19T18:45:17;8.90;99.90
13405;DHT22;6773;51.192;7.024;2022-12-19T18:47:45;9.00;99.90
13405;DHT22;6773;51.192;7.024;2022-12-19T18:50:19;8.90;99.90
13405;DHT22;6773;51.192;7.024;2022-12-19T18:52:46;8.90;99.90
13405;DHT22;6773;51.192;7.024;2022-12-19T18:55:14;8.90;99.90
13405;DHT22;6773;51.192;7.024;2022-12-19T18:57:41;8.80;99.90
13405;DHT22;6773;51.192;7.024;2022-12-19T19:00:11;8.80;99.90
13405;DHT22;6773;51.192;7.024;2022-12-19T19:02:37;8.70;99.90
13405;DHT22;6773;51.192;7.024;2022-12-19T19:05:12;8.70;99.90
13405;DHT22;6773;51.192;7.024;2022-12-19T19:07:38;8.70;99.90
13405;DHT22;6773;51.192;7.024;2022-12-19T19:10:15;8.80;99.90
13405;DHT22;6773;51.192;7.024;2022-12-19T19:12:41;8.80;99.90
13405;DHT22;6773;51.192;7.024;2022-12-19T19:15:07;8.80;99.90
13405;DHT22;6773;51.192;7.024;2022-12-19T19:17:33;8.90;99.90
13405;DHT22;6773;51.192;7.024;2022-12-19T19:20:00;8.90;99.90
13405;DHT22;6773;51.192;7.024;2022-12-19T19:22:26;9.00;99.90
13405;DHT22;6773;51.192;7.024;2022-12-19T19:29:44;9.00;99.90
13405;DHT22;6773;51.192;7.024;2022-12-19T19:32:09;9.10;99.90
13405;DHT22;6773;51.192;7.024;2022-12-19T19:34:38;9.20;99.90
13405;DHT22;6773;51.192;7.024;2022-12-19T19:37:06;9.10;99.90
13405;DHT22;6773;51.192;7.024;2022-12-19T19:42:01;9.20;99.90
13405;DHT22;6773;51.192;7.024;2022-12-19T19:44:27;9.20;99.90
13405;DHT22;6773;51.192;7.024;2022-12-19T19:46:53;9.30;99.90
13405;DHT22;6773;51.192;7.024;2022-12-19T19:49:21;9.20;99.90
13405;DHT22;6773;51.192;7.024;2022-12-19T19:51:47;9.30;99.90
13405;DHT22;6773;51.192;7.024;2022-12-19T19:54:13;9.30;99.90
13405;DHT22;6773;51.192;7.024;2022-12-19T19:59:05;9.30;99.90
13405;DHT22;6773;51.192;7.024;2022-12-19T20:01:30;9.40;99.90
13405;DHT22;6773;51.192;7.024;2022-12-19T20:03:56;9.40;99.90
13405;DHT22;6773;51.192;7.024;2022-12-19T20:06:22;9.40;99.90
13405;DHT22;6773;51.192;7.024;2022-12-19T20:11:15;9.40;99.90
13405;DHT22;6773;51.192;7.024;2022-12-19T20:16:09;9.50;99.90
13405;DHT22;6773;51.192;7.024;2022-12-19T20:18:36;9.40;99.90
13405;DHT22;6773;51.192;7.024;2022-12-19T20:21:02;9.50;99.90
13405;DHT22;6773;51.192;7.024;2022-12-19T20:23:28;9.50;99.90
13405;DHT22;6773;51.192;7.024;2022-12-19T20:25:59;9.40;99.90
13405;DHT22;6773;51.192;7.024;2022-12-19T20:28:25;9.50;99.90
13405;DHT22;6773;51.192;7.024;2022-12-19T20:30:50;9.50;99.90
13405;DHT22;6773;51.192;7.024;2022-12-19T20:33:16;9.50;99.90
13405;DHT22;6773;51.192;7.024;2022-12-19T20:35:42;9.50;99.90
13405;DHT22;6773;51.192;7.024;2022-12-19T20:40:34;9.50;99.90
13405;DHT22;6773;51.192;7.024;2022-12-19T20:43:00;9.50;99.90
13405;DHT22;6773;51.192;7.024;2022-12-19T20:47:52;9.40;99.90